createdAt,value
2023-02-18T00:00:03.856Z,5.28
2023-02-18T00:03:12.830Z,5.23
2023-02-18T00:06:20.181Z,5.27
2023-02-18T00:09:25.927Z,5.23
2023-02-18T00:12:32.872Z,5.22
2023-02-18T00:15:39.824Z,5.21
2023-02-18T00:18:48.837Z,5.17
2023-02-18T00:21:54.076Z,5.20
2023-02-18T00:24:59.176Z,5.18
2023-02-18T00:28:04.576Z,5.15
2023-02-18T00:31:13.953Z,5.19
2023-02-18T00:34:19.324Z,5.13
2023-02-18T00:37:24.605Z,5.10
2023-02-18T00:40:29.798Z,5.04
2023-02-18T00:43:35.101Z,5.06
2023-02-18T00:46:42.565Z,5.02
2023-02-18T00:49:47.799Z,4.97
2023-02-18T00:52:53.022Z,4.96
2023-02-18T00:55:58.269Z,4.90
2023-02-18T00:59:03.665Z,4.91
2023-02-18T01:02:13.278Z,4.90
2023-02-18T01:05:18.412Z,4.89
2023-02-18T01:08:24.339Z,4.86
2023-02-18T01:11:29.515Z,4.82
2023-02-18T01:14:34.710Z,4.83
2023-02-18T01:17:41.491Z,4.78
2023-02-18T01:20:48.159Z,4.76
2023-02-18T01:23:54.808Z,4.74
2023-02-18T01:27:00.038Z,4.72
2023-02-18T01:30:07.616Z,4.70
2023-02-18T01:33:15.663Z,4.63
2023-02-18T01:36:22.168Z,4.62
2023-02-18T01:39:27.515Z,4.54
2023-02-18T01:42:32.860Z,4.50
2023-02-18T01:45:58.429Z,4.37
2023-02-18T01:49:05.023Z,4.28
2023-02-18T01:52:16.241Z,4.17
2023-02-18T01:55:21.470Z,4.02
2023-02-18T01:58:26.856Z,3.77
2023-02-18T02:01:33.253Z,3.73
2023-02-18T02:04:41.578Z,3.72
2023-02-18T02:07:49.155Z,3.62
2023-02-18T02:11:08.742Z,3.61
2023-02-18T02:14:42.403Z,3.50
2023-02-18T02:17:54.058Z,3.50
2023-02-18T02:21:36.496Z,3.42
2023-02-18T02:25:04.557Z,3.31
2023-02-18T02:28:41.793Z,3.04
2023-02-18T02:32:18.415Z,3.13
2023-02-18T02:35:27.419Z,2.93
2023-02-18T02:38:36.382Z,2.99
2023-02-18T02:41:48.393Z,2.91
2023-02-18T02:44:56.438Z,2.84
2023-02-18T02:48:05.282Z,2.73
2023-02-18T02:51:17.699Z,2.72
2023-02-18T02:54:25.818Z,2.80
2023-02-18T02:57:48.091Z,2.81
2023-02-18T03:01:15.635Z,2.59
2023-02-18T03:04:43.186Z,2.59
2023-02-18T03:08:10.908Z,2.58
2023-02-18T03:11:17.643Z,2.71
2023-02-18T03:14:29.646Z,2.58
2023-02-18T03:17:38.939Z,2.65
2023-02-18T03:20:48.113Z,2.57
2023-02-18T03:23:57.914Z,2.70
2023-02-18T03:27:09.917Z,2.68
2023-02-18T03:30:19.259Z,2.77
2023-02-18T03:33:28.682Z,2.59
2023-02-18T03:36:34.870Z,2.77
2023-02-18T03:39:44.972Z,2.57
2023-02-18T03:42:52.113Z,2.55
2023-02-18T03:45:57.352Z,2.55
2023-02-18T03:49:02.859Z,2.67
2023-02-18T03:52:08.863Z,2.40
2023-02-18T03:55:15.757Z,2.43
2023-02-18T03:58:20.584Z,2.47
2023-02-18T04:01:25.959Z,2.46
2023-02-18T04:04:31.005Z,2.38
2023-02-18T04:07:36.615Z,2.38
2023-02-18T04:10:43.092Z,2.42
2023-02-18T04:13:48.941Z,2.51
2023-02-18T04:16:54.192Z,2.50
2023-02-18T04:19:59.535Z,2.44
2023-02-18T04:23:05.913Z,2.45
2023-02-18T04:26:14.482Z,2.43
2023-02-18T04:29:19.743Z,2.43
2023-02-18T04:32:24.705Z,2.35
2023-02-18T04:35:29.789Z,2.41
2023-02-18T04:38:34.907Z,2.41
2023-02-18T04:41:41.420Z,2.48
2023-02-18T04:44:47.615Z,2.56
2023-02-18T04:47:52.629Z,2.56
2023-02-18T04:50:58.826Z,2.55
2023-02-18T04:54:04.817Z,2.51
2023-02-18T04:57:11.642Z,2.57
2023-02-18T05:00:19.289Z,2.52
2023-02-18T05:03:24.529Z,2.52
2023-02-18T05:06:29.681Z,2.56
2023-02-18T05:09:34.919Z,2.57
2023-02-18T05:12:41.467Z,2.55
2023-02-18T05:15:47.280Z,2.50
2023-02-18T05:18:52.550Z,2.55
2023-02-18T05:21:57.931Z,2.57
2023-02-18T05:25:02.859Z,2.56
2023-02-18T05:28:09.619Z,2.55
2023-02-18T05:31:15.131Z,2.57
2023-02-18T05:34:20.481Z,2.50
2023-02-18T05:37:25.598Z,2.47
2023-02-18T05:40:31.179Z,2.47
2023-02-18T05:43:57.827Z,2.50
2023-02-18T05:47:04.182Z,2.55
2023-02-18T05:50:11.118Z,2.63
2023-02-18T05:53:17.686Z,2.66
2023-02-18T05:56:22.885Z,2.67
2023-02-18T05:59:30.331Z,2.70
2023-02-18T06:02:35.474Z,2.60
2023-02-18T06:05:40.359Z,2.63
2023-02-18T06:08:45.545Z,2.67
2023-02-18T06:11:50.724Z,2.66
2023-02-18T06:14:57.728Z,2.67
2023-02-18T06:18:03.055Z,2.66
2023-02-18T06:21:08.467Z,2.66
2023-02-18T06:24:13.708Z,2.71
2023-02-18T06:27:18.901Z,2.75
2023-02-18T06:30:25.559Z,2.76
2023-02-18T06:33:30.888Z,2.77
2023-02-18T06:36:36.314Z,2.79
2023-02-18T06:39:41.241Z,2.78
2023-02-18T06:42:46.577Z,2.77
2023-02-18T06:45:53.703Z,2.83
2023-02-18T06:48:59.232Z,2.81
2023-02-18T06:52:04.449Z,2.89
2023-02-18T06:55:10.653Z,2.86
2023-02-18T06:58:16.468Z,2.92
2023-02-18T07:01:23.224Z,2.85
2023-02-18T07:04:28.026Z,2.90
2023-02-18T07:07:33.415Z,2.89
2023-02-18T07:10:39.771Z,2.76
2023-02-18T07:13:45.467Z,2.86
2023-02-18T07:16:51.655Z,2.83
2023-02-18T07:19:56.980Z,2.84
2023-02-18T07:23:02.341Z,2.91
2023-02-18T07:26:10.412Z,2.88
2023-02-18T07:29:15.621Z,2.89
2023-02-18T07:32:22.534Z,2.86
2023-02-18T07:35:27.672Z,2.88
2023-02-18T07:38:33.241Z,2.94
2023-02-18T07:41:38.454Z,2.95
2023-02-18T07:44:51.977Z,2.96
2023-02-18T07:47:58.586Z,2.97
2023-02-18T07:51:06.934Z,2.99
2023-02-18T07:54:12.457Z,2.91
2023-02-18T07:57:17.676Z,2.94
2023-02-18T08:00:22.706Z,2.88
2023-02-18T08:03:31.071Z,2.96
2023-02-18T08:06:38.106Z,2.93
2023-02-18T08:09:44.157Z,2.96
2023-02-18T08:12:49.479Z,3.05
2023-02-18T08:15:57.006Z,3.05
2023-02-18T08:19:04.546Z,3.01
2023-02-18T08:22:10.574Z,2.99
2023-02-18T08:25:28.974Z,3.10
2023-02-18T08:28:35.094Z,3.16
2023-02-18T08:31:40.091Z,3.06
2023-02-18T08:34:46.995Z,3.05
2023-02-18T08:37:54.450Z,3.03
2023-02-18T08:41:04.662Z,3.10
2023-02-18T08:44:11.236Z,3.05
2023-02-18T08:48:17.980Z,2.97
2023-02-18T08:50:44.315Z,3.12
2023-02-18T08:53:50.412Z,3.06
2023-02-18T08:56:57.863Z,3.16
2023-02-18T09:00:03.073Z,3.16
2023-02-18T09:03:08.548Z,3.15
2023-02-18T09:06:15.260Z,3.28
2023-02-18T09:09:20.844Z,3.25
2023-02-18T09:12:25.735Z,3.21
2023-02-18T09:15:32.405Z,3.34
2023-02-18T09:18:37.634Z,3.35
2023-02-18T09:21:44.336Z,3.41
2023-02-18T09:24:49.201Z,3.48
2023-02-18T09:27:54.407Z,3.48
2023-02-18T09:31:00.511Z,3.58
2023-02-18T09:34:05.769Z,3.51
2023-02-18T09:37:13.490Z,3.51
2023-02-18T09:40:27.257Z,3.50
2023-02-18T09:43:35.296Z,3.57
2023-02-18T09:46:42.753Z,3.65
2023-02-18T09:49:50.619Z,3.64
2023-02-18T09:53:00.207Z,3.70
2023-02-18T09:56:07.664Z,3.65
2023-02-18T09:59:17.362Z,3.64
2023-02-18T10:02:30.746Z,3.65
2023-02-18T10:05:37.346Z,3.71
2023-02-18T10:08:47.281Z,3.76
2023-02-18T10:12:04.296Z,3.84
2023-02-18T10:15:12.442Z,3.81
2023-02-18T10:18:25.825Z,3.97
2023-02-18T10:21:35.172Z,3.84
2023-02-18T10:24:44.336Z,3.86
2023-02-18T10:27:51.105Z,3.85
2023-02-18T10:31:01.394Z,3.96
2023-02-18T10:34:13.404Z,3.99
2023-02-18T10:37:32.145Z,4.00
2023-02-18T10:40:48.993Z,4.06
2023-02-18T10:43:58.233Z,4.19
2023-02-18T10:47:09.094Z,4.16
2023-02-18T10:50:21.199Z,4.12
2023-02-18T10:53:33.986Z,4.23
2023-02-18T10:56:43.692Z,4.13
2023-02-18T10:59:58.536Z,4.27
2023-02-18T11:03:11.831Z,4.26
2023-02-18T11:06:23.366Z,4.40
2023-02-18T11:09:33.307Z,4.43
2023-02-18T11:12:46.820Z,4.51
2023-02-18T11:16:04.353Z,4.59
2023-02-18T11:19:33.716Z,4.55
2023-02-18T11:22:41.223Z,4.66
2023-02-18T11:25:57.587Z,4.79
2023-02-18T11:29:06.916Z,4.85
2023-02-18T11:32:14.593Z,4.79
2023-02-18T11:35:21.478Z,4.81
2023-02-18T11:38:30.554Z,4.75
2023-02-18T11:41:38.704Z,4.79
2023-02-18T11:44:51.404Z,4.81
2023-02-18T11:48:02.383Z,4.85
2023-02-18T11:51:08.275Z,4.74
2023-02-18T11:54:27.863Z,4.88
2023-02-18T11:57:33.774Z,4.88
2023-02-18T12:00:43.625Z,4.86
2023-02-18T12:03:53.993Z,4.88
2023-02-18T12:07:07.642Z,4.97
2023-02-18T12:10:17.323Z,5.02
2023-02-18T12:13:27.224Z,5.07
2023-02-18T12:16:40.892Z,5.15
2023-02-18T12:19:58.152Z,5.16
2023-02-18T12:23:10.410Z,5.22
2023-02-18T12:26:26.151Z,5.21
2023-02-18T12:30:04.961Z,5.28
2023-02-18T12:33:21.233Z,5.28
2023-02-18T12:36:34.778Z,5.30
2023-02-18T12:39:53.326Z,5.28
2023-02-18T12:43:04.165Z,5.38
2023-02-18T12:46:25.525Z,5.34
2023-02-18T12:50:00.591Z,5.32
2023-02-18T12:53:28.595Z,5.31
2023-02-18T12:56:58.448Z,5.42
2023-02-18T13:00:33.149Z,5.38
2023-02-18T13:03:55.476Z,5.52
2023-02-18T13:07:16.842Z,5.48
2023-02-18T13:10:40.671Z,5.53
2023-02-18T13:13:50.656Z,5.44
2023-02-18T13:16:58.764Z,5.56
2023-02-18T13:20:07.629Z,5.49
2023-02-18T13:23:20.211Z,5.50
2023-02-18T13:26:26.265Z,5.56
2023-02-18T13:29:34.595Z,5.55
2023-02-18T13:32:44.262Z,5.52
2023-02-18T13:35:55.792Z,5.49
2023-02-18T13:39:06.461Z,5.46
2023-02-18T13:42:28.923Z,5.37
2023-02-18T13:45:34.868Z,5.38
2023-02-18T13:48:46.428Z,5.33
2023-02-18T13:51:52.620Z,5.33
2023-02-18T13:54:59.855Z,5.32
2023-02-18T13:58:04.944Z,5.38
2023-02-18T14:01:23.807Z,5.34
2023-02-18T14:04:54.440Z,5.22
2023-02-18T14:08:13.142Z,5.12
2023-02-18T14:11:42.699Z,5.16
2023-02-18T14:14:48.446Z,5.22
2023-02-18T14:18:10.652Z,5.25
2023-02-18T14:21:44.104Z,5.25
2023-02-18T14:24:54.851Z,5.26
2023-02-18T14:28:05.369Z,5.25
2023-02-18T14:31:30.466Z,5.24
2023-02-18T14:35:03.912Z,5.21
2023-02-18T14:38:28.192Z,5.17
2023-02-18T14:41:54.863Z,5.25
2023-02-18T14:45:10.834Z,5.22
2023-02-18T14:48:42.937Z,5.16
2023-02-18T14:51:49.152Z,5.14
2023-02-18T14:54:55.313Z,5.20
2023-02-18T14:58:04.446Z,5.17
2023-02-18T15:01:20.806Z,5.16
2023-02-18T15:04:26.901Z,5.09
2023-02-18T15:07:34.104Z,5.06
2023-02-18T15:10:42.105Z,4.95
2023-02-18T15:13:48.470Z,4.89
2023-02-18T15:16:55.727Z,4.88
2023-02-18T15:20:06.640Z,4.85
2023-02-18T15:23:15.234Z,4.70
2023-02-18T15:26:21.349Z,4.77
2023-02-18T15:29:27.573Z,4.83
2023-02-18T15:32:35.272Z,4.85
2023-02-18T15:35:43.530Z,4.85
2023-02-18T15:38:49.209Z,4.88
2023-02-18T15:41:55.979Z,4.89
2023-02-18T15:45:06.066Z,4.55
2023-02-18T15:48:24.638Z,4.44
2023-02-18T15:51:32.148Z,4.52
2023-02-18T15:54:41.362Z,4.45
2023-02-18T15:57:46.835Z,4.56
2023-02-18T16:00:53.873Z,4.47
2023-02-18T16:04:01.407Z,4.32
2023-02-18T16:07:25.224Z,4.36
2023-02-18T16:10:46.379Z,4.24
2023-02-18T16:13:51.535Z,4.19
2023-02-18T16:17:15.982Z,4.23
2023-02-18T16:20:32.151Z,4.07
2023-02-18T16:23:42.424Z,4.33
2023-02-18T16:26:48.941Z,4.22
2023-02-18T16:29:54.161Z,4.30
2023-02-18T16:33:00.689Z,4.19
2023-02-18T16:36:07.653Z,4.05
2023-02-18T16:39:15.107Z,3.97
2023-02-18T16:42:20.508Z,3.98
2023-02-18T16:45:33.561Z,3.96
2023-02-18T16:48:40.986Z,3.87
2023-02-18T16:51:47.714Z,3.85
2023-02-18T16:54:54.511Z,3.82
2023-02-18T16:57:59.756Z,3.91
2023-02-18T17:01:04.776Z,3.84
2023-02-18T17:04:12.944Z,3.93
2023-02-18T17:07:19.479Z,3.86
2023-02-18T17:10:24.306Z,3.94
2023-02-18T17:13:31.667Z,3.94
2023-02-18T17:16:36.974Z,3.82
2023-02-18T17:19:42.650Z,3.75
2023-02-18T17:22:49.493Z,3.76
2023-02-18T17:25:56.820Z,3.80
2023-02-18T17:29:02.480Z,3.76
2023-02-18T17:32:09.012Z,3.61
2023-02-18T17:35:22.886Z,3.65
2023-02-18T17:38:29.570Z,3.63
2023-02-18T17:41:34.722Z,3.60
2023-02-18T17:44:40.119Z,3.45
2023-02-18T17:47:45.226Z,3.29
2023-02-18T17:50:50.641Z,3.41
2023-02-18T17:53:58.651Z,3.28
2023-02-18T17:57:04.105Z,3.23
2023-02-18T18:00:10.079Z,3.31
2023-02-18T18:03:19.785Z,3.14
2023-02-18T18:06:25.018Z,3.16
2023-02-18T18:09:33.670Z,3.17
2023-02-18T18:12:39.589Z,3.12
2023-02-18T18:15:45.760Z,3.11
2023-02-18T18:18:51.173Z,3.13
2023-02-18T18:21:56.618Z,3.11
2023-02-18T18:25:04.772Z,3.00
2023-02-18T18:28:10.422Z,2.95
2023-02-18T18:31:19.233Z,2.92
2023-02-18T18:34:24.367Z,2.88
2023-02-18T18:37:29.529Z,2.79
2023-02-18T18:40:37.578Z,2.81
2023-02-18T18:43:45.378Z,2.84
2023-02-18T18:46:50.283Z,2.80
2023-02-18T18:49:55.746Z,2.84
2023-02-18T18:53:01.342Z,2.80
2023-02-18T18:56:09.448Z,2.81
2023-02-18T18:59:14.553Z,2.80
2023-02-18T19:02:20.406Z,2.75
2023-02-18T19:05:29.835Z,2.63
2023-02-18T19:08:35.107Z,2.76
2023-02-18T19:11:42.814Z,2.69
2023-02-18T19:14:47.602Z,2.64
2023-02-18T19:17:54.999Z,2.68
2023-02-18T19:21:01.872Z,2.56
2023-02-18T19:24:08.358Z,2.57
2023-02-18T19:27:17.483Z,2.56
2023-02-18T19:30:24.334Z,2.58
2023-02-18T19:33:31.173Z,2.58
2023-02-18T19:36:36.290Z,2.45
2023-02-18T19:39:41.322Z,2.45
2023-02-18T19:42:48.792Z,2.43
2023-02-18T19:45:54.186Z,2.44
2023-02-18T19:48:59.420Z,2.34
2023-02-18T19:52:05.520Z,2.29
2023-02-18T19:55:11.772Z,2.26
2023-02-18T19:58:18.982Z,2.38
2023-02-18T20:01:24.577Z,2.31
2023-02-18T20:04:31.326Z,2.29
2023-02-18T20:07:37.455Z,2.26
2023-02-18T20:10:49.757Z,2.26
2023-02-18T20:13:56.922Z,2.22
2023-02-18T20:17:02.051Z,2.13
2023-02-18T20:20:10.141Z,2.11
2023-02-18T20:23:15.679Z,2.09
2023-02-18T20:26:20.611Z,2.15
2023-02-18T20:29:28.715Z,2.03
2023-02-18T20:32:36.512Z,2.07
2023-02-18T20:35:41.728Z,1.95
2023-02-18T20:38:47.101Z,2.01
2023-02-18T20:41:56.803Z,1.98
2023-02-18T20:45:04.745Z,1.89
2023-02-18T20:48:13.261Z,1.92
2023-02-18T20:51:20.632Z,1.94
2023-02-18T20:54:25.890Z,1.87
2023-02-18T20:57:33.821Z,1.82
2023-02-18T21:00:42.916Z,1.81
2023-02-18T21:03:52.147Z,1.85
2023-02-18T21:06:57.256Z,1.87
2023-02-18T21:10:06.684Z,1.77
2023-02-18T21:13:14.464Z,1.81
2023-02-18T21:16:22.765Z,1.79
2023-02-18T21:19:28.848Z,1.71
2023-02-18T21:22:35.289Z,1.67
2023-02-18T21:25:42.022Z,1.67
2023-02-18T21:28:49.205Z,1.70
2023-02-18T21:31:56.180Z,1.65
2023-02-18T21:35:01.492Z,1.62
2023-02-18T21:38:07.327Z,1.56
2023-02-18T21:41:14.845Z,1.48
2023-02-18T21:44:25.039Z,1.61
2023-02-18T21:47:37.902Z,1.54
2023-02-18T21:50:43.075Z,1.57
2023-02-18T21:53:49.488Z,1.58
2023-02-18T21:56:56.816Z,1.48
2023-02-18T22:00:14.571Z,1.46
2023-02-18T22:03:24.969Z,1.37
2023-02-18T22:06:30.346Z,1.40
2023-02-18T22:09:35.200Z,1.34
2023-02-18T22:12:41.048Z,1.37
2023-02-18T22:15:47.466Z,1.36
2023-02-18T22:18:55.081Z,1.39
2023-02-18T22:22:00.576Z,1.33
2023-02-18T22:25:06.130Z,1.27
2023-02-18T22:28:13.604Z,1.22
2023-02-18T22:31:18.971Z,1.22
2023-02-18T22:34:26.056Z,1.16
2023-02-18T22:37:31.869Z,1.18
2023-02-18T22:40:36.783Z,1.14
2023-02-18T22:43:42.054Z,1.16
2023-02-18T22:46:47.249Z,1.16
2023-02-18T22:49:53.716Z,1.09
2023-02-18T22:52:58.864Z,1.02
2023-02-18T22:56:05.167Z,1.08
2023-02-18T22:59:12.562Z,1.02
2023-02-18T23:02:19.930Z,0.99
2023-02-18T23:05:26.877Z,1.07
2023-02-18T23:08:32.695Z,1.14
2023-02-18T23:11:38.116Z,1.14
2023-02-18T23:14:43.795Z,1.13
2023-02-18T23:17:53.486Z,1.11
2023-02-18T23:21:21.409Z,1.06
2023-02-18T23:24:26.959Z,0.98
2023-02-18T23:27:32.585Z,0.91
2023-02-18T23:30:37.922Z,0.97
2023-02-18T23:33:43.282Z,0.96
2023-02-18T23:36:49.880Z,0.96
2023-02-18T23:39:55.158Z,0.93
2023-02-18T23:43:00.128Z,0.94
2023-02-18T23:46:07.626Z,0.77
2023-02-18T23:49:16.350Z,0.79
2023-02-18T23:52:22.871Z,0.84
2023-02-18T23:55:28.120Z,0.88
2023-02-18T23:58:33.766Z,0.86
